Time;durP1;ratioP1;P1;durP2;ratioP2;P2;SDS_P1;SDS_P2;PMS_P1;PMS_P2;Temp;Humidity;BMP_temperature;BMP_pressure;BME280_temperature;BME280_humidity;BME280_pressure;Samples;Min_cycle;Max_cycle;Signal;HPM_P1;HPM_P2
2022/08/04 00:02:14;;;;;;;1.33;0.80;;;27.60;92.80;;;;;;5052692;28;20025;-53
2022/08/04 00:04:47;;;;;;;2.10;0.77;;;27.60;92.60;;;;;;5052887;28;20029;-50
2022/08/04 00:07:40;;;;;;;1.58;0.88;;;27.60;92.80;;;;;;5053046;28;20021;-52
2022/08/04 00:10:07;;;;;;;3.15;0.90;;;27.80;69.40;;;;;;5052749;28;20041;-50
2022/08/04 00:12:37;;;;;;;1.45;0.80;;;27.10;92.60;;;;;;5052701;28;20013;-51
2022/08/04 00:15:05;;;;;;;0.65;0.65;;;27.30;61.30;;;;;;5052612;28;20498;-49
2022/08/04 00:17:38;;;;;;;1.92;0.70;;;27.40;92.70;;;;;;5052837;28;20092;-49
2022/08/04 00:20:05;;;;;;;1.08;0.70;;;27.40;60.00;;;;;;5052483;28;20090;-51
2022/08/04 00:22:34;;;;;;;1.58;0.70;;;27.30;61.20;;;;;;5051167;28;20025;-49
2022/08/04 00:25:02;;;;;;;2.33;0.70;;;27.40;61.20;;;;;;5052478;28;20032;-49
2022/08/04 00:27:32;;;;;;;3.47;0.70;;;26.90;92.50;;;;;;5052456;28;20020;-49
2022/08/04 00:29:58;;;;;;;0.70;0.65;;;27.60;73.50;;;;;;5052442;28;20483;-50
2022/08/04 00:32:27;;;;;;;1.20;0.80;;;27.20;92.60;;;;;;5052391;28;20032;-50
2022/08/04 00:34:57;;;;;;;1.38;0.80;;;27.00;88.20;;;;;;5052343;28;20418;-49
2022/08/04 00:37:24;;;;;;;1.08;0.93;;;27.40;60.70;;;;;;5052104;28;20072;-49
2022/08/04 00:39:52;;;;;;;1.17;0.90;;;27.40;92.70;;;;;;5052213;28;20036;-48
2022/08/04 00:43:02;;;;;;;1.92;0.75;;;27.10;92.60;;;;;;5052088;28;20025;-49
2022/08/04 00:45:38;;;;;;;;;;;27.40;62.10;;;;;;5030342;28;20022;-50
2022/08/04 00:48:12;;;;;;;1.10;0.88;;;27.00;69.70;;;;;;5050655;28;19995;-53
2022/08/04 00:51:02;;;;;;;1.15;0.80;;;27.60;92.80;;;;;;5052075;28;20029;-50
2022/08/04 00:53:35;;;;;;;2.17;0.60;;;27.30;61.10;;;;;;5052075;28;20025;-51
2022/08/04 00:56:53;;;;;;;2.22;1.20;;;27.60;92.90;;;;;;5052115;28;20072;-48
2022/08/04 00:59:50;;;;;;;1.33;0.77;;;27.20;92.70;;;;;;5012747;28;20045;-52
2022/08/04 01:02:16;;;;;;;0.90;0.70;;;;;;;;;;5051674;28;20382;-50
2022/08/04 01:04:56;;;;;;;1.73;0.77;;;27.50;70.80;;;;;;5051940;28;20025;-49
2022/08/04 01:07:39;;;;;;;0.98;0.60;;;27.60;92.80;;;;;;5052012;28;20387;-49
2022/08/04 01:11:06;;;;;;;1.17;1.00;;;27.20;92.80;;;;;;5051871;28;20025;-50
2022/08/04 01:13:59;;;;;;;1.30;1.02;;;27.10;92.60;;;;;;5029582;28;20030;-50
2022/08/04 01:16:26;;;;;;;0.95;0.85;;;27.50;92.80;;;;;;5029649;28;20085;-49
2022/08/04 01:19:02;;;;;;;1.00;0.77;;;27.60;91.00;;;;;;5044603;28;20044;-50
2022/08/04 01:21:46;;;;;;;1.23;0.63;;;27.20;75.20;;;;;;5051774;28;20025;-51
2022/08/04 01:24:23;;;;;;;1.60;0.80;;;27.00;92.60;;;;;;5051820;28;20104;-51
2022/08/04 01:27:23;;;;;;;1.73;0.88;;;27.50;92.80;;;;;;5051851;28;20021;-49
2022/08/04 01:29:50;;;;;;;1.48;0.70;;;27.30;92.80;;;;;;5051762;28;20025;-49
2022/08/04 01:32:24;;;;;;;2.35;0.80;;;27.60;72.50;;;;;;5051647;28;20444;-49
2022/08/04 01:35:06;;;;;;;2.20;1.10;;;27.30;57.70;;;;;;5051639;28;20020;-53
2022/08/04 01:37:37;;;;;;;1.33;0.90;;;27.30;58.00;;;;;;5051312;28;20603;-48
2022/08/04 01:40:06;;;;;;;0.52;0.52;;;27.40;61.40;;;;;;5051474;28;20068;-48
2022/08/04 01:42:34;;;;;;;1.83;0.60;;;27.40;61.70;;;;;;5051748;28;20021;-49
2022/08/04 01:45:08;;;;;;;0.70;0.70;;;28.60;58.60;;;;;;5051507;28;20021;-48
2022/08/04 01:47:37;;;;;;;1.92;0.70;;;27.40;61.50;;;;;;5051411;28;20387;-50
2022/08/04 01:50:11;;;;;;;1.05;0.90;;;27.60;57.90;;;;;;5051621;28;20033;-48
2022/08/04 01:52:39;;;;;;;2.47;0.90;;;27.30;61.60;;;;;;5051517;28;20021;-51
2022/08/04 01:55:08;;;;;;;0.82;0.80;;;27.60;61.70;;;;;;5051536;28;20025;-49
2022/08/04 01:57:46;;;;;;;0.80;0.70;;;27.20;61.30;;;;;;5051421;28;20510;-48
2022/08/04 02:00:16;;;;;;;1.17;0.80;;;27.70;92.80;;;;;;5051360;28;20029;-52
2022/08/04 02:02:42;;;;;;;1.38;0.88;;;;;;;;;;5051517;28;20036;-49
2022/08/04 02:05:15;;;;;;;3.20;1.00;;;26.80;57.20;;;;;;5051417;28;20101;-49
2022/08/04 02:07:53;;;;;;;1.55;1.00;;;27.30;57.70;;;;;;5051636;28;20037;-50
2022/08/04 02:10:39;;;;;;;1.00;0.60;;;27.60;92.80;;;;;;5051566;28;20032;-51
2022/08/04 02:13:29;;;;;;;1.67;0.98;;;27.60;92.80;;;;;;5051337;28;20078;-53
2022/08/04 02:16:18;;;;;;;1.45;0.93;;;27.30;61.00;;;;;;5054878;28;20021;-53
2022/08/04 02:18:44;;;;;;;2.55;0.80;;;;;;;;;;5054445;28;20095;-54
2022/08/04 02:21:11;;;;;;;1.58;0.60;;;;;;;;;;5054818;28;20055;-50
2022/08/04 02:23:42;;;;;;;1.60;0.70;;;27.20;92.60;;;;;;5054968;28;20029;-54
2022/08/04 02:26:18;;;;;;;1.95;0.88;;;27.30;80.30;;;;;;5054632;28;20468;-51
2022/08/04 02:29:29;;;;;;;1.00;0.85;;;27.60;92.80;;;;;;5054570;28;20111;-52
2022/08/04 02:32:06;;;;;;;1.00;0.80;;;26.90;92.60;;;;;;5032212;28;20609;-51
2022/08/04 02:35:03;;;;;;;2.10;0.70;;;27.70;82.20;;;;;;5032302;28;20435;-49
2022/08/04 02:37:31;;;;;;;1.02;0.93;;;27.60;92.90;;;;;;5039600;28;20554;-49
2022/08/04 02:40:00;;;;;;;1.88;0.95;;;27.20;92.60;;;;;;5054439;28;20095;-50
2022/08/04 02:42:28;;;;;;;0.90;0.80;;;26.80;74.70;;;;;;5054346;28;20380;-50
2022/08/04 02:44:56;;;;;;;1.55;0.60;;;27.10;61.20;;;;;;5054322;28;20025;-47
2022/08/04 02:47:24;;;;;;;1.65;0.93;;;27.20;61.20;;;;;;5054228;28;20067;-51
2022/08/04 02:49:51;;;;;;;1.05;0.80;;;27.00;92.50;;;;;;5054439;28;20427;-48
2022/08/04 02:52:18;;;;;;;1.85;0.70;;;27.60;92.90;;;;;;5054223;28;20033;-49
2022/08/04 02:54:46;;;;;;;1.58;1.00;;;27.00;92.50;;;;;;5054339;28;20162;-47
2022/08/04 02:57:13;;;;;;;2.85;1.10;;;26.90;92.50;;;;;;5054193;28;20420;-49
2022/08/04 03:00:06;;;;;;;0.88;0.88;;;27.00;92.60;;;;;;5053935;28;20033;-51
2022/08/04 03:02:54;;;;;;;1.80;0.90;;;27.50;92.80;;;;;;5053943;28;20487;-51
2022/08/04 03:05:38;;;;;;;0.68;0.60;;;27.50;92.80;;;;;;5054012;28;20025;-50
2022/08/04 03:08:21;;;;;;;2.40;0.98;;;27.20;57.60;;;;;;5053882;28;20033;-48
2022/08/04 03:10:53;;;;;;;0.60;0.60;;;27.20;57.60;;;;;;5053878;28;20407;-48
2022/08/04 03:13:27;;;;;;;1.42;0.73;;;26.50;92.50;;;;;;5054161;28;20052;-50
2022/08/04 03:16:28;;;;;;;1.40;1.00;;;27.20;57.70;;;;;;5053778;28;20017;-49
2022/08/04 03:18:56;;;;;;;0.90;0.90;;;27.40;92.80;;;;;;5053880;28;20043;-51
2022/08/04 03:21:37;;;;;;;1.80;0.85;;;27.30;92.80;;;;;;5053642;28;20036;-49
2022/08/04 03:24:24;;;;;;;0.95;0.80;;;26.90;75.50;;;;;;5053418;28;20029;-52
2022/08/04 03:26:56;;;;;;;1.17;0.80;;;27.60;92.80;;;;;;5053561;28;20021;-48
2022/08/04 03:30:02;;;;;;;1.50;1.10;;;27.60;59.40;;;;;;5053497;28;20035;-51
2022/08/04 03:33:06;;;;;;;1.02;0.70;;;27.60;92.80;;;;;;5053521;28;20071;-52
2022/08/04 03:35:40;;;;;;;1.52;0.70;;;27.40;66.40;;;;;;5053432;28;20033;-50
2022/08/04 03:38:06;;;;;;;1.88;0.90;;;;;;;;;;5053095;28;20053;-50
2022/08/04 03:40:53;;;;;;;1.42;1.00;;;27.70;67.70;;;;;;5053257;28;20060;-49
2022/08/04 03:43:19;;;;;;;1.08;0.80;;;;;;;;;;5053225;28;20032;-50
2022/08/04 03:46:06;;;;;;;1.67;0.90;;;27.10;57.50;;;;;;5053108;28;20029;-49
2022/08/04 03:49:06;;;;;;;1.05;0.80;;;27.10;57.50;;;;;;5053112;28;20024;-50
2022/08/04 03:54:49;;;;;;;0.80;0.80;;;27.30;92.70;;;;;;5053055;28;20154;-49
2022/08/04 03:57:42;;;;;;;1.88;1.00;;;26.70;92.50;;;;;;5052909;28;20063;-47
2022/08/04 04:00:18;;;;;;;1.63;1.00;;;26.70;92.50;;;;;;5052852;28;20033;-47
2022/08/04 04:03:08;;;;;;;1.55;0.93;;;27.30;89.60;;;;;;5052735;28;20104;-48
2022/08/04 04:05:54;;;;;;;;;;;27.10;58.10;;;;;;5053153;28;20028;-49
2022/08/04 04:08:54;;;;;;;1.90;0.88;;;27.10;92.40;;;;;;5052420;28;19912;-50
2022/08/04 04:11:20;;;;;;;0.90;0.80;;;;;;;;;;5052714;28;20016;-50
2022/08/04 04:13:45;;;;;;;2.25;1.02;;;26.90;79.10;;;;;;5052574;28;20028;-50
2022/08/04 04:16:11;;;;;;;0.60;0.60;;;;;;;;;;5052802;28;20108;-49
2022/08/04 04:18:55;;;;;;;1.55;0.95;;;27.10;57.50;;;;;;5052480;28;20484;-50
2022/08/04 04:21:45;;;;;;;1.92;1.00;;;27.40;92.80;;;;;;5052725;28;20086;-49
2022/08/04 04:24:11;;;;;;;;;;;27.30;58.10;;;;;;5053076;28;20391;-48
2022/08/04 04:26:43;;;;;;;1.30;0.80;;;27.40;92.70;;;;;;5052468;28;19905;-49
2022/08/04 04:29:16;;;;;;;1.73;1.08;;;27.40;92.70;;;;;;5052426;28;20071;-48
2022/08/04 04:31:48;;;;;;;1.65;1.08;;;26.90;92.50;;;;;;5052365;28;20391;-50
2022/08/04 04:34:19;;;;;;;2.13;0.88;;;27.30;75.40;;;;;;5052281;28;20044;-48
2022/08/04 04:37:25;;;;;;;1.17;0.77;;;27.10;57.40;;;;;;5051372;28;20410;-51
2022/08/04 04:40:03;;;;;;;1.63;0.90;;;27.70;61.90;;;;;;5049066;28;20389;-52
2022/08/04 04:42:28;;;;;;;1.40;1.02;;;26.80;92.50;;;;;;5052190;28;20430;-51
2022/08/04 04:44:54;;;;;;;3.50;0.77;;;;;;;;;;5052396;28;20025;-50
2022/08/04 04:47:48;;;;;;;1.70;1.05;;;27.50;92.70;;;;;;5052251;28;20029;-47
2022/08/04 04:50:22;;;;;;;1.98;0.80;;;27.10;61.00;;;;;;5052145;28;20108;-52
2022/08/04 04:53:03;;;;;;;0.93;0.90;;;27.10;92.30;;;;;;5052115;28;20096;-52
2022/08/04 04:55:36;;;;;;;2.03;0.80;;;26.90;92.60;;;;;;5052073;28;20068;-50
2022/08/04 04:58:03;;;;;;;2.38;0.90;;;27.40;92.70;;;;;;5051942;28;20071;-49
2022/08/04 05:00:53;;;;;;;2.08;1.17;;;27.20;92.80;;;;;;5052195;28;20029;-53
2022/08/04 05:03:46;;;;;;;2.47;1.00;;;26.60;92.50;;;;;;5051908;28;20479;-53
2022/08/04 05:06:34;;;;;;;1.13;1.02;;;26.80;71.80;;;;;;5051964;28;20387;-50
2022/08/04 05:09:27;;;;;;;3.58;1.20;;;27.20;92.50;;;;;;5051801;28;20477;-51
2022/08/04 05:12:13;;;;;;;1.50;1.15;;;27.10;57.60;;;;;;5051903;28;20411;-48
2022/08/04 05:14:46;;;;;;;1.42;1.17;;;26.70;92.60;;;;;;5051862;28;20021;-53
2022/08/04 05:17:35;;;;;;;1.98;1.02;;;27.00;61.40;;;;;;5051840;28;20029;-48
2022/08/04 05:20:06;;;;;;;2.08;1.08;;;27.20;92.70;;;;;;5051389;28;20120;-49
2022/08/04 05:22:34;;;;;;;3.60;1.67;;;27.20;61.50;;;;;;5051833;28;20071;-49
2022/08/04 05:25:04;;;;;;;2.40;1.25;;;27.00;61.50;;;;;;5051765;28;20029;-48
2022/08/04 05:27:45;;;;;;;1.92;1.58;;;27.30;92.70;;;;;;5051697;28;20387;-49
2022/08/04 05:30:11;;;;;;;2.25;2.05;;;27.40;69.20;;;;;;5051762;28;20105;-50
2022/08/04 05:32:54;;;;;;;2.95;1.90;;;26.80;92.60;;;;;;5051640;28;20025;-48
2022/08/04 05:35:36;;;;;;;1.73;1.50;;;26.70;92.40;;;;;;5050429;28;20507;-52
2022/08/04 05:38:03;;;;;;;2.17;2.00;;;27.20;61.30;;;;;;5051474;28;20049;-49
2022/08/04 05:40:29;;;;;;;2.15;1.73;;;;;;;;;;5051804;28;20400;-52
2022/08/04 05:42:56;;;;;;;1.75;1.35;;;27.30;92.80;;;;;;5051694;28;20029;-52
2022/08/04 05:45:23;;;;;;;2.63;1.52;;;27.10;61.20;;;;;;5051888;28;20059;-52
2022/08/04 05:47:51;;;;;;;2.75;1.80;;;27.30;92.80;;;;;;5052589;28;20028;-51
2022/08/04 05:50:17;;;;;;;2.60;1.40;;;27.20;92.80;;;;;;5055334;28;20096;-50
2022/08/04 05:52:44;;;;;;;1.90;1.58;;;;;;;;;;5055436;28;20108;-50
2022/08/04 05:55:11;;;;;;;1.75;1.33;;;27.20;59.90;;;;;;5055543;28;20394;-48
2022/08/04 05:57:39;;;;;;;5.43;1.92;;;27.20;92.90;;;;;;5055247;28;20025;-49
2022/08/04 06:00:06;;;;;;;3.28;1.67;;;27.30;92.80;;;;;;5055218;28;20044;-48
2022/08/04 06:02:33;;;;;;;4.38;1.40;;;27.00;61.30;;;;;;5055106;28;20033;-49
2022/08/04 06:05:00;;;;;;;3.95;1.88;;;27.10;92.90;;;;;;5055325;28;20048;-53
2022/08/04 06:07:26;;;;;;;5.80;1.52;;;;;;;;;;5055084;28;20103;-51
2022/08/04 06:09:53;;;;;;;2.88;1.33;;;27.20;92.80;;;;;;5055068;28;20029;-52
2022/08/04 06:12:31;;;;;;;4.93;1.75;;;27.00;92.80;;;;;;5054977;28;20013;-52
2022/08/04 06:14:58;;;;;;;4.30;1.80;;;27.40;93.00;;;;;;5054951;28;20096;-50
2022/08/04 06:17:39;;;;;;;4.47;1.45;;;27.40;72.10;;;;;;5054926;28;20525;-53
2022/08/04 06:20:08;;;;;;;7.90;1.92;;;27.10;61.50;;;;;;5054962;28;20038;-51
2022/08/04 06:22:38;;;;;;;5.75;1.48;;;26.90;60.70;;;;;;5054807;28;20400;-52
2022/08/04 06:25:06;;;;;;;4.47;1.40;;;27.30;87.30;;;;;;5054773;28;20029;-50
2022/08/04 06:27:32;;;;;;;5.20;1.63;;;26.90;61.60;;;;;;5054557;28;20028;-51
2022/08/04 06:29:59;;;;;;;7.13;1.70;;;27.30;62.50;;;;;;5053187;28;20100;-48
2022/08/04 06:32:26;;;;;;;3.95;1.33;;;27.10;66.80;;;;;;5053668;28;20021;-47
2022/08/04 06:35:00;;;;;;;4.57;1.50;;;27.10;92.80;;;;;;5054239;28;20033;-49
2022/08/04 06:37:27;;;;;;;4.70;1.42;;;;;;;;;;5054705;28;20076;-52
2022/08/04 06:39:54;;;;;;;2.67;1.33;;;27.30;92.90;;;;;;5053207;28;20487;-50
2022/08/04 06:42:22;;;;;;;7.65;1.30;;;27.00;61.60;;;;;;5054617;28;20078;-52
2022/08/04 06:44:51;;;;;;;4.05;1.58;;;27.40;92.90;;;;;;5054642;28;20025;-51
2022/08/04 06:47:19;;;;;;;3.33;1.00;;;27.50;92.90;;;;;;5054508;28;20028;-50
2022/08/04 06:49:48;;;;;;;4.22;1.40;;;27.10;61.50;;;;;;5054362;28;20104;-49
2022/08/04 06:52:16;;;;;;;2.38;1.08;;;27.20;61.40;;;;;;5054410;28;20031;-49
2022/08/04 06:54:46;;;;;;;2.60;1.10;;;27.10;87.40;;;;;;5054281;28;20025;-49
2022/08/04 06:57:21;;;;;;;2.50;1.13;;;27.00;61.30;;;;;;5054327;28;20115;-48
2022/08/04 06:59:52;;;;;;;5.25;1.10;;;27.10;61.30;;;;;;5053123;28;20033;-49
2022/08/04 07:02:23;;;;;;;3.42;1.17;;;26.80;60.80;;;;;;5054107;28;20530;-51
2022/08/04 07:04:48;;;;;;;3.97;1.33;;;27.30;92.80;;;;;;5054091;28;20021;-50
2022/08/04 07:07:15;;;;;;;4.05;1.17;;;27.40;92.80;;;;;;5054170;28;20032;-49
2022/08/04 07:09:40;;;;;;;1.55;0.98;;;27.30;92.90;;;;;;5053829;28;20040;-48
2022/08/04 07:12:07;;;;;;;2.28;1.00;;;;;;;;;;5053834;28;20021;-49
2022/08/04 07:14:35;;;;;;;1.92;1.20;;;;;;;;;;5053872;28;20112;-47
2022/08/04 07:17:03;;;;;;;2.28;1.45;;;27.10;92.70;;;;;;5054024;28;20162;-51
2022/08/04 07:19:31;;;;;;;1.50;1.02;;;27.20;61.30;;;;;;5053681;28;20033;-48
2022/08/04 07:21:57;;;;;;;1.75;1.08;;;27.50;92.80;;;;;;5053865;28;20032;-50
2022/08/04 07:24:29;;;;;;;3.47;0.90;;;26.80;92.50;;;;;;5053804;28;20038;-50
2022/08/04 07:26:55;;;;;;;2.53;1.08;;;27.30;92.70;;;;;;5053897;28;20450;-48
2022/08/04 07:29:21;;;;;;;2.00;1.20;;;27.20;92.70;;;;;;5053667;28;20104;-49
2022/08/04 07:31:48;;;;;;;2.10;0.85;;;27.50;92.80;;;;;;5053694;28;20033;-50
2022/08/04 07:34:14;;;;;;;3.97;1.10;;;;;;;;;;5053813;28;20025;-48
2022/08/04 07:36:40;;;;;;;1.88;0.95;;;;;;;;;;5053251;28;20112;-48
2022/08/04 07:39:06;;;;;;;5.20;1.40;;;;;;;;;;5053304;28;20503;-49
2022/08/04 07:41:32;;;;;;;3.78;1.15;;;;;;;;;;5053392;28;20086;-47
2022/08/04 07:43:58;;;;;;;2.95;1.20;;;;;;;;;;5053301;28;20531;-48
2022/08/04 07:46:24;;;;;;;3.63;1.13;;;27.30;92.70;;;;;;5053362;28;20021;-51
2022/08/04 07:48:50;;;;;;;3.35;1.23;;;27.30;92.60;;;;;;5053224;28;20043;-48
2022/08/04 07:51:17;;;;;;;2.38;0.93;;;27.20;92.50;;;;;;5053552;28;20454;-49
2022/08/04 07:53:44;;;;;;;1.92;1.10;;;27.40;92.70;;;;;;5053110;28;20033;-48
2022/08/04 07:56:11;;;;;;;1.75;1.00;;;27.20;61.00;;;;;;5053081;28;20024;-50
2022/08/04 07:58:37;;;;;;;1.23;0.85;;;;;;;;;;5052954;28;20476;-47
2022/08/04 08:01:03;;;;;;;2.97;1.02;;;;;;;;;;5052936;28;20036;-49
2022/08/04 08:03:30;;;;;;;2.05;1.23;;;;;;;;;;5052935;28;20028;-50
2022/08/04 08:05:56;;;;;;;2.75;0.98;;;;;;;;;;5053162;28;20045;-49
2022/08/04 08:08:22;;;;;;;3.15;0.73;;;;;;;;;;5052963;28;20025;-48
2022/08/04 08:10:48;;;;;;;1.45;0.88;;;27.20;60.40;;;;;;5052854;28;20029;-49
2022/08/04 08:13:15;;;;;;;1.30;0.82;;;27.10;60.90;;;;;;5052770;28;20476;-49
2022/08/04 08:15:44;;;;;;;2.33;1.15;;;27.60;92.80;;;;;;5053069;28;20024;-49
2022/08/04 08:18:10;;;;;;;2.30;1.02;;;27.20;92.60;;;;;;5052664;28;20070;-49
2022/08/04 08:20:36;;;;;;;1.00;0.82;;;;;;;;;;5052663;28;20426;-49
2022/08/04 08:23:02;;;;;;;3.50;0.88;;;;;;;;;;5052463;28;20336;-49
2022/08/04 08:25:32;;;;;;;2.13;0.73;;;27.40;92.50;;;;;;5052574;28;20021;-49
2022/08/04 08:27:58;;;;;;;3.00;0.77;;;;;;;;;;5052634;28;20044;-48
2022/08/04 08:30:24;;;;;;;2.13;0.80;;;;;;;;;;5052782;28;20130;-48
2022/08/04 08:32:50;;;;;;;3.47;0.80;;;27.50;92.50;;;;;;5052735;28;20436;-48
2022/08/04 08:35:17;;;;;;;1.15;0.93;;;26.90;91.00;;;;;;5051076;28;20119;-50
2022/08/04 08:37:55;;;;;;;3.17;1.15;;;27.50;92.50;;;;;;5052283;28;20052;-48
2022/08/04 08:41:03;;;;;;;2.58;0.90;;;27.40;92.50;;;;;;5052252;28;20115;-50
2022/08/04 08:43:38;;;;;;;2.35;0.82;;;27.10;92.40;;;;;;5015210;28;20499;-49
2022/08/04 08:46:36;;;;;;;4.30;0.95;;;27.30;57.20;;;;;;5052312;28;20029;-48
2022/08/04 08:49:19;;;;;;;3.08;0.80;;;27.40;92.50;;;;;;5052685;28;20029;-48
2022/08/04 08:51:50;;;;;;;1.17;0.75;;;27.50;92.50;;;;;;5052384;28;20056;-49
2022/08/04 08:54:34;;;;;;;1.65;0.77;;;27.20;92.20;;;;;;5052453;28;20356;-50
2022/08/04 08:57:09;;;;;;;3.05;0.82;;;27.00;91.20;;;;;;5052217;28;20099;-48
2022/08/04 08:59:59;;;;;;;1.77;0.95;;;27.20;92.00;;;;;;5052264;28;20041;-48
2022/08/04 09:02:43;;;;;;;;;;;27.50;60.20;;;;;;5052449;28;20037;-48
2022/08/04 09:05:27;;;;;;;1.42;0.63;;;27.40;92.10;;;;;;5052156;28;20484;-50
2022/08/04 09:07:59;;;;;;;1.70;0.95;;;27.50;92.00;;;;;;5052159;28;20104;-48
2022/08/04 09:10:42;;;;;;;2.03;0.75;;;27.30;91.80;;;;;;5050694;28;20495;-49
2022/08/04 09:13:18;;;;;;;1.80;0.90;;;27.50;91.80;;;;;;5052035;28;20519;-50
2022/08/04 09:16:17;;;;;;;2.83;0.80;;;27.60;56.00;;;;;;5052022;28;20071;-49
2022/08/04 09:19:09;;;;;;;2.30;0.95;;;27.60;55.90;;;;;;5051821;28;20063;-48
2022/08/04 09:21:50;;;;;;;1.55;0.80;;;27.70;91.70;;;;;;5051896;28;20057;-48
2022/08/04 09:24:23;;;;;;;1.63;0.77;;;27.30;58.80;;;;;;5055214;28;20035;-48
2022/08/04 09:26:57;;;;;;;3.50;0.80;;;27.80;59.10;;;;;;5056044;28;20021;-48
2022/08/04 09:29:36;;;;;;;2.35;0.93;;;27.80;91.60;;;;;;5055981;28;20028;-51
2022/08/04 09:32:29;;;;;;;1.20;0.88;;;28.10;81.20;;;;;;5055901;28;20024;-48
2022/08/04 09:35:04;;;;;;;1.65;0.65;;;27.30;91.50;;;;;;5055863;28;20025;-48
2022/08/04 09:37:43;;;;;;;2.00;0.80;;;27.30;90.50;;;;;;5055587;28;20057;-48
2022/08/04 09:40:18;;;;;;;2.33;0.80;;;27.40;91.60;;;;;;5055711;28;20177;-48
2022/08/04 09:42:44;;;;;;;1.90;0.80;;;;;;;;;;5055865;28;20017;-48
2022/08/04 09:45:21;;;;;;;1.55;0.90;;;27.50;58.90;;;;;;5055571;28;20048;-49
2022/08/04 09:47:57;;;;;;;3.22;0.80;;;27.40;91.50;;;;;;5055596;28;20024;-53
2022/08/04 09:50:29;;;;;;;0.60;0.60;;;27.60;55.80;;;;;;5055463;28;20130;-52
2022/08/04 09:53:13;;;;;;;1.20;0.70;;;28.00;91.90;;;;;;5055430;28;20042;-49
2022/08/04 09:55:45;;;;;;;1.58;1.08;;;27.30;91.60;;;;;;5055367;28;20162;-51
2022/08/04 09:58:32;;;;;;;2.30;1.02;;;27.40;91.60;;;;;;5055255;28;20029;-49
2022/08/04 10:01:08;;;;;;;3.50;0.75;;;27.70;91.80;;;;;;5055412;28;20033;-51
2022/08/04 10:03:47;;;;;;;1.55;0.85;;;27.30;59.30;;;;;;5055169;28;20134;-47
2022/08/04 10:06:33;;;;;;;2.40;0.90;;;27.70;91.80;;;;;;5055503;28;20075;-51
2022/08/04 10:09:28;;;;;;;0.93;0.70;;;27.30;91.60;;;;;;5055201;28;20051;-52
2022/08/04 10:11:54;;;;;;;1.55;0.73;;;;;;;;;;5044581;28;20033;-51
2022/08/04 10:14:52;;;;;;;1.02;0.45;;;27.40;86.20;;;;;;5054994;28;20082;-49
2022/08/04 10:17:55;;;;;;;2.03;0.75;;;27.70;91.70;;;;;;5055307;28;20029;-51
2022/08/04 10:20:39;;;;;;;3.38;0.95;;;27.50;91.70;;;;;;5054778;28;20037;-50
2022/08/04 10:23:12;;;;;;;2.80;0.85;;;27.60;59.10;;;;;;5054771;28;20497;-54
2022/08/04 10:25:44;;;;;;;1.38;0.70;;;27.70;87.10;;;;;;5054648;28;20025;-51
2022/08/04 10:28:14;;;;;;;3.22;0.90;;;27.50;59.20;;;;;;5054619;28;20028;-48
2022/08/04 10:30:50;;;;;;;0.75;0.73;;;27.30;78.50;;;;;;5054813;28;20025;-49
2022/08/04 10:33:31;;;;;;;1.63;0.70;;;27.40;55.80;;;;;;5054679;28;20023;-51
2022/08/04 10:36:03;;;;;;;1.42;0.90;;;27.40;74.50;;;;;;5053263;28;20037;-49
2022/08/04 10:38:39;;;;;;;1.13;0.70;;;27.50;91.70;;;;;;5054406;28;20156;-50
2022/08/04 10:41:19;;;;;;;2.05;0.95;;;27.70;91.70;;;;;;5054383;28;20037;-48
2022/08/04 10:43:45;;;;;;;2.58;0.80;;;;;;;;;;5054339;28;20384;-51
2022/08/04 10:46:16;;;;;;;1.10;0.65;;;27.30;55.50;;;;;;5054291;28;20054;-48
2022/08/04 10:49:02;;;;;;;2.20;0.60;;;27.40;82.40;;;;;;5054156;28;20151;-50
2022/08/04 10:51:41;;;;;;;2.15;0.70;;;27.60;91.50;;;;;;5054231;28;20108;-49
2022/08/04 10:54:14;;;;;;;1.40;0.70;;;27.90;78.70;;;;;;5054157;28;20100;-48
2022/08/04 10:56:49;;;;;;;3.10;0.90;;;27.60;55.50;;;;;;5054187;28;20036;-49
2022/08/04 10:59:27;;;;;;;1.27;0.70;;;27.80;91.50;;;;;;5054100;28;20033;-49
2022/08/04 11:01:59;;;;;;;1.60;0.68;;;27.30;91.40;;;;;;5054373;28;20025;-48
2022/08/04 11:04:28;;;;;;;1.45;0.68;;;27.60;91.40;;;;;;5053998;28;20032;-48
2022/08/04 11:06:55;;;;;;;0.88;0.60;;;27.80;58.50;;;;;;5054257;28;20025;-49
2022/08/04 11:09:21;;;;;;;1.50;0.93;;;27.40;91.30;;;;;;5054199;28;20063;-50
2022/08/04 11:12:20;;;;;;;1.45;0.60;;;27.70;55.10;;;;;;5054219;28;20377;-51
2022/08/04 11:14:57;;;;;;;2.70;0.80;;;27.70;55.00;;;;;;5049801;28;20033;-47
2022/08/04 11:17:45;;;;;;;0.73;0.70;;;28.30;61.20;;;;;;5053907;28;20018;-48
2022/08/04 11:20:33;;;;;;;0.90;0.80;;;27.40;91.20;;;;;;5053804;28;20079;-48
2022/08/04 11:22:59;;;;;;;2.20;0.73;;;;;;;;;;5053743;28;20028;-49
2022/08/04 11:25:32;;;;;;;1.48;0.70;;;28.10;91.40;;;;;;5053917;28;20384;-49
2022/08/04 11:28:03;;;;;;;3.55;0.88;;;28.10;74.60;;;;;;5053747;28;20024;-48
2022/08/04 11:30:52;;;;;;;1.05;0.60;;;27.80;54.90;;;;;;5053645;28;20025;-54
2022/08/04 11:33:51;;;;;;;1.70;0.75;;;28.10;65.20;;;;;;5052653;28;20025;-48
2022/08/04 11:36:29;;;;;;;0.83;0.67;;;27.60;91.10;;;;;;5053390;28;20063;-51
2022/08/04 11:39:19;;;;;;;1.10;0.80;;;27.90;54.70;;;;;;5053386;28;20041;-51
2022/08/04 11:41:44;;;;;;;;;;;27.60;55.10;;;;;;5053695;28;20551;-49
2022/08/04 11:44:42;;;;;;;1.48;0.57;;;27.80;91.10;;;;;;5053237;28;19944;-49
2022/08/04 11:47:29;;;;;;;1.67;0.70;;;27.90;57.60;;;;;;5044732;28;20029;-48
2022/08/04 11:50:31;;;;;;;0.88;0.77;;;28.00;54.60;;;;;;5053121;28;20037;-49
2022/08/04 11:52:58;;;;;;;0.52;0.40;;;27.70;90.80;;;;;;5053062;28;20045;-47
2022/08/04 11:55:26;;;;;;;0.73;0.55;;;27.70;57.50;;;;;;5053125;28;20153;-49
2022/08/04 11:57:52;;;;;;;1.63;0.68;;;;;;;;;;5051739;28;20036;-49
2022/08/04 12:00:19;;;;;;;0.95;0.60;;;;;;;;;;5052942;28;20037;-47
2022/08/04 12:02:50;;;;;;;1.42;0.77;;;27.90;90.80;;;;;;5053085;28;20033;-47
2022/08/04 12:05:20;;;;;;;2.92;0.90;;;27.60;90.90;;;;;;5052937;28;20033;-52
2022/08/04 12:07:46;;;;;;;2.22;0.60;;;;;;;;;;5053210;28;20020;-48
2022/08/04 12:10:29;;;;;;;1.02;0.70;;;28.00;57.00;;;;;;5052815;28;20468;-47
2022/08/04 12:13:13;;;;;;;1.67;0.73;;;28.40;91.00;;;;;;5052864;28;20025;-48
2022/08/04 12:15:51;;;;;;;1.02;0.70;;;28.10;57.50;;;;;;5052820;28;20032;-49
2022/08/04 12:18:23;;;;;;;0.77;0.60;;;28.20;90.90;;;;;;5052861;28;20096;-53
2022/08/04 12:21:00;;;;;;;1.33;0.65;;;28.20;90.90;;;;;;5052651;28;20041;-50
2022/08/04 12:23:32;;;;;;;0.88;0.55;;;28.20;57.40;;;;;;5052680;28;20017;-48
2022/08/04 12:26:04;;;;;;;1.02;0.70;;;27.90;77.70;;;;;;5052558;28;20029;-50
2022/08/04 12:28:40;;;;;;;2.00;0.70;;;28.50;90.80;;;;;;5052730;28;20036;-47
2022/08/04 12:31:20;;;;;;;1.17;0.77;;;28.20;54.10;;;;;;5052521;28;20043;-49
2022/08/04 12:33:55;;;;;;;1.60;0.82;;;27.80;54.60;;;;;;5052535;28;20151;-48
2022/08/04 12:36:54;;;;;;;1.90;0.70;;;28.30;54.10;;;;;;5052341;28;20083;-48
2022/08/04 12:39:21;;;;;;;0.60;0.50;;;28.00;62.00;;;;;;5052605;28;20029;-49
2022/08/04 12:41:47;;;;;;;2.13;0.80;;;;;;;;;;5052401;28;20029;-49
2022/08/04 12:44:13;;;;;;;1.15;0.75;;;28.30;90.70;;;;;;5052336;28;20036;-49
2022/08/04 12:46:43;;;;;;;1.15;0.70;;;28.20;57.00;;;;;;5052368;28;20100;-48
2022/08/04 12:49:11;;;;;;;0.95;0.75;;;28.20;57.00;;;;;;5052284;28;20048;-50
2022/08/04 12:51:42;;;;;;;1.02;0.82;;;28.20;53.80;;;;;;5052541;28;20029;-49
2022/08/04 12:54:09;;;;;;;1.55;0.77;;;28.20;80.50;;;;;;5052305;28;20021;-49
2022/08/04 12:56:36;;;;;;;1.63;0.98;;;27.90;90.60;;;;;;5052151;28;20479;-48
2022/08/04 12:59:06;;;;;;;1.10;0.60;;;28.30;56.90;;;;;;5051427;28;20116;-46
2022/08/04 13:01:33;;;;;;;1.48;0.95;;;;;;;;;;5052124;28;20409;-47
2022/08/04 13:04:11;;;;;;;2.65;1.02;;;28.10;90.40;;;;;;5052469;28;20021;-47
2022/08/04 13:06:40;;;;;;;1.65;0.63;;;28.10;90.40;;;;;;5052176;28;20025;-47
2022/08/04 13:09:19;;;;;;;2.45;0.80;;;28.30;53.70;;;;;;5052051;28;20028;-46
2022/08/04 13:12:13;;;;;;;0.80;0.75;;;28.00;90.20;;;;;;5052150;28;20032;-47
2022/08/04 13:14:43;;;;;;;1.15;0.70;;;28.70;90.50;;;;;;5052075;28;20021;-48
2022/08/04 13:17:10;;;;;;;1.63;0.70;;;28.40;56.30;;;;;;5052153;28;20036;-49
2022/08/04 13:19:37;;;;;;;1.27;0.60;;;28.30;55.00;;;;;;5051785;28;20094;-49
2022/08/04 13:22:04;;;;;;;1.65;1.00;;;28.00;90.20;;;;;;5051880;28;20043;-48
2022/08/04 13:24:32;;;;;;;1.73;1.10;;;28.30;56.70;;;;;;5051835;28;20036;-48
2022/08/04 13:27:07;;;;;;;4.07;0.80;;;28.40;70.30;;;;;;5051814;28;20048;-50
2022/08/04 13:29:45;;;;;;;1.65;0.70;;;28.50;91.20;;;;;;5052088;28;20384;-49
2022/08/04 13:32:17;;;;;;;1.95;0.73;;;28.40;57.90;;;;;;5051853;28;20017;-48
2022/08/04 13:34:45;;;;;;;3.35;0.75;;;28.20;91.20;;;;;;5051912;28;20060;-50
2022/08/04 13:37:12;;;;;;;1.67;1.05;;;28.80;91.40;;;;;;5051620;28;20132;-47
2022/08/04 13:39:48;;;;;;;1.67;0.88;;;28.50;57.80;;;;;;5051730;28;20036;-50
2022/08/04 13:42:14;;;;;;;1.23;0.90;;;;;;;;;;5051997;28;20045;-51
2022/08/04 13:44:45;;;;;;;1.40;0.70;;;28.80;69.80;;;;;;5051781;28;20017;-49
2022/08/04 13:47:33;;;;;;;1.27;0.85;;;28.80;91.20;;;;;;5051744;28;20029;-50